createdAt,value
2019-04-24T00:02:59.835Z,34.30
2019-04-24T00:05:56.642Z,34.30
2019-04-24T00:08:20.875Z,34.50
2019-04-24T00:11:16.302Z,34.40
2019-04-24T00:13:49.317Z,34.50
2019-04-24T00:16:12.221Z,34.40
2019-04-24T00:18:55.048Z,34.60
2019-04-24T00:23:51.456Z,34.70
2019-04-24T00:26:10.318Z,34.70
2019-04-24T00:31:16.227Z,34.70
2019-04-24T00:33:54.769Z,34.60
2019-04-24T00:43:55.696Z,34.70
2019-04-24T00:46:33.337Z,34.80
2019-04-24T00:51:32.735Z,34.80
2019-04-24T00:56:30.029Z,34.90
2019-04-24T00:59:13.699Z,34.80
2019-04-24T01:02:03.976Z,35.00
2019-04-24T01:04:59.663Z,35.00
2019-04-24T01:07:30.498Z,34.90
2019-04-24T01:12:56.831Z,35.20
2019-04-24T01:15:21.722Z,35.00
2019-04-24T01:20:27.533Z,35.00
2019-04-24T01:22:54.348Z,35.00
2019-04-24T01:30:45.421Z,34.90
2019-04-24T01:35:55.228Z,34.60
2019-04-24T01:41:01.176Z,34.70
2019-04-24T01:43:34.224Z,34.70
2019-04-24T01:48:37.274Z,34.50
2019-04-24T01:50:58.914Z,34.50
2019-04-24T01:53:29.904Z,34.60
2019-04-24T01:56:03.161Z,34.50
2019-04-24T02:01:07.456Z,34.50
2019-04-24T02:03:36.370Z,34.40
2019-04-24T02:08:36.192Z,34.60
2019-04-24T02:11:43.961Z,34.60
2019-04-24T02:14:15.205Z,34.70
2019-04-24T02:16:44.745Z,34.50
2019-04-24T02:19:10.598Z,34.60
2019-04-24T02:21:46.768Z,34.50
2019-04-24T02:24:22.098Z,34.60
2019-04-24T02:26:37.588Z,34.60
2019-04-24T02:29:21.193Z,34.60
2019-04-24T02:32:12.644Z,34.60
2019-04-24T02:34:40.142Z,34.60
2019-04-24T02:37:28.161Z,34.70
2019-04-24T02:47:50.361Z,34.70
2019-04-24T02:50:06.635Z,34.80
2019-04-24T02:52:52.809Z,34.80
2019-04-24T03:00:24.115Z,34.80
2019-04-24T03:03:04.881Z,34.70
2019-04-24T03:08:12.257Z,34.80
2019-04-24T03:10:37.864Z,34.70
2019-04-24T03:13:23.209Z,34.70
2019-04-24T03:16:18.023Z,34.90
2019-04-24T03:23:36.248Z,34.90
2019-04-24T03:28:50.467Z,34.90
2019-04-24T03:33:53.090Z,35.10
2019-04-24T03:49:00.058Z,35.00
2019-04-24T03:56:28.792Z,35.00
2019-04-24T04:09:53.834Z,34.90
2019-04-24T04:12:33.432Z,35.00
2019-04-24T04:17:37.778Z,35.10
2019-04-24T04:19:48.891Z,35.10
2019-04-24T04:25:01.737Z,35.00
2019-04-24T04:33:29.806Z,35.10
2019-04-24T04:36:01.326Z,35.20
2019-04-24T04:38:33.377Z,35.20
2019-04-24T04:41:20.662Z,35.30
2019-04-24T04:43:56.502Z,35.10
2019-04-24T04:49:18.759Z,35.20
2019-04-24T04:52:01.643Z,35.30
2019-04-24T04:54:42.167Z,35.30
2019-04-24T04:56:51.410Z,35.50
2019-04-24T04:59:12.007Z,35.40
2019-04-24T05:04:52.143Z,35.40
2019-04-24T05:09:51.083Z,35.40
2019-04-24T05:19:38.869Z,35.40
2019-04-24T05:22:20.510Z,35.30
2019-04-24T05:24:53.843Z,35.40
2019-04-24T05:27:31.900Z,35.30
2019-04-24T05:35:38.878Z,35.60
2019-04-24T05:38:20.082Z,35.60
2019-04-24T05:43:27.427Z,35.30
2019-04-24T05:46:06.514Z,35.30
2019-04-24T05:48:28.089Z,35.20
2019-04-24T05:54:15.051Z,35.40
2019-04-24T05:56:57.539Z,35.60
2019-04-24T06:07:33.993Z,35.70
2019-04-24T06:10:11.081Z,35.60
2019-04-24T06:12:59.369Z,35.60
2019-04-24T06:29:19.163Z,35.80
2019-04-24T06:37:01.207Z,35.90
2019-04-24T06:42:14.933Z,35.70
2019-04-24T06:45:10.419Z,35.70
2019-04-24T06:49:40.093Z,35.60
2019-04-24T06:54:42.506Z,35.80
2019-04-24T07:00:08.986Z,35.60
2019-04-24T07:02:35.010Z,35.60
2019-04-24T07:13:54.179Z,35.20
2019-04-24T07:18:48.116Z,34.80
2019-04-24T07:24:03.811Z,34.90
2019-04-24T07:26:30.643Z,35.00
2019-04-24T07:28:58.382Z,35.10
2019-04-24T07:34:39.239Z,35.40
2019-04-24T07:36:55.752Z,35.50
2019-04-24T07:39:43.702Z,35.40
2019-04-24T07:42:04.500Z,35.40
2019-04-24T07:44:29.384Z,35.20
2019-04-24T07:47:09.247Z,35.10
2019-04-24T07:49:52.391Z,35.10
2019-04-24T07:52:13.330Z,35.10
2019-04-24T07:57:18.515Z,35.20
2019-04-24T08:07:45.599Z,34.80
2019-04-24T08:10:45.287Z,34.70
2019-04-24T08:13:16.441Z,34.70
2019-04-24T08:15:50.626Z,34.60
2019-04-24T08:18:24.051Z,34.50
2019-04-24T08:20:55.809Z,34.70
2019-04-24T08:23:28.586Z,34.60
2019-04-24T08:31:22.670Z,34.40
2019-04-24T08:34:26.025Z,34.20
2019-04-24T08:36:07.985Z,34.30
2019-04-24T08:39:27.096Z,33.90
2019-04-24T08:44:43.701Z,33.80
2019-04-24T08:47:14.313Z,33.80
2019-04-24T08:54:47.808Z,33.30
2019-04-24T08:57:38.711Z,33.10
2019-04-24T09:03:15.869Z,33.00
2019-04-24T09:05:44.616Z,33.00
2019-04-24T09:13:47.733Z,33.10
2019-04-24T09:16:08.206Z,33.00
2019-04-24T09:19:01.595Z,32.90
2019-04-24T09:24:10.366Z,32.50
2019-04-24T09:29:29.914Z,32.00
2019-04-24T09:40:22.211Z,30.60
2019-04-24T09:47:37.328Z,30.10
2019-04-24T09:50:01.170Z,30.00
2019-04-24T09:55:15.613Z,29.90
2019-04-24T09:57:56.151Z,29.80
2019-04-24T10:00:37.233Z,30.00
2019-04-24T10:03:11.428Z,30.20
2019-04-24T10:06:01.068Z,30.50
2019-04-24T10:08:17.404Z,30.70
2019-04-24T10:10:46.668Z,30.70
2019-04-24T10:13:27.668Z,30.70
2019-04-24T10:16:03.421Z,30.70
2019-04-24T10:18:43.573Z,30.20
2019-04-24T10:21:05.248Z,29.70
2019-04-24T10:29:41.686Z,29.10
2019-04-24T10:35:08.365Z,29.10
2019-04-24T10:43:34.292Z,28.50
2019-04-24T10:46:04.853Z,28.40
2019-04-24T10:48:46.784Z,28.00
2019-04-24T10:51:16.836Z,27.70
2019-04-24T10:53:50.894Z,27.50
2019-04-24T10:56:24.108Z,27.20
2019-04-24T10:58:51.366Z,27.20
2019-04-24T11:02:02.817Z,27.50
2019-04-24T11:04:36.147Z,27.90
2019-04-24T11:07:21.652Z,28.20
2019-04-24T11:10:23.612Z,28.40
2019-04-24T11:13:00.679Z,28.60
2019-04-24T11:15:33.997Z,29.00
2019-04-24T11:18:09.739Z,28.90
2019-04-24T11:23:27.623Z,27.70
2019-04-24T11:29:05.108Z,27.00
2019-04-24T11:31:38.125Z,25.50
2019-04-24T11:37:00.239Z,21.90
2019-04-24T11:40:19.517Z,21.50
2019-04-24T11:42:31.003Z,20.30
2019-04-24T11:44:43.686Z,19.20
2019-04-24T11:50:20.849Z,17.80
2019-04-24T11:58:19.617Z,17.10
2019-04-24T12:00:25.980Z,17.30
2019-04-24T12:03:24.982Z,18.00
2019-04-24T12:08:37.745Z,18.70
2019-04-24T12:11:18.529Z,19.00
2019-04-24T12:13:55.207Z,18.80
2019-04-24T12:16:46.933Z,18.80
2019-04-24T12:19:26.651Z,19.00
2019-04-24T12:22:02.089Z,19.30
2019-04-24T12:24:26.653Z,20.40
2019-04-24T12:26:52.567Z,20.50
2019-04-24T12:29:37.414Z,20.50
2019-04-24T12:32:17.060Z,20.60
2019-04-24T12:34:59.035Z,21.00
2019-04-24T12:40:40.789Z,21.60
2019-04-24T12:43:19.599Z,21.70
2019-04-24T12:45:52.764Z,21.90
2019-04-24T12:48:06.771Z,21.90
2019-04-24T12:51:02.853Z,22.10
2019-04-24T12:53:20.379Z,22.30
2019-04-24T12:58:58.379Z,22.30
2019-04-24T13:01:51.044Z,22.70
2019-04-24T13:04:38.788Z,22.70
2019-04-24T13:07:07.162Z,23.00
2019-04-24T13:09:49.697Z,23.10
2019-04-24T13:12:28.647Z,23.00
2019-04-24T13:15:07.987Z,23.00
2019-04-24T13:19:33.359Z,22.90
2019-04-24T13:22:09.859Z,22.60
2019-04-24T13:25:01.732Z,22.80
2019-04-24T13:30:45.671Z,22.40
2019-04-24T13:33:25.653Z,22.20
2019-04-24T13:35:44.767Z,22.30
2019-04-24T13:38:18.227Z,22.50
2019-04-24T13:46:02.157Z,22.50
2019-04-24T13:50:50.946Z,22.60
2019-04-24T13:58:32.982Z,22.90
2019-04-24T14:01:29.133Z,23.10
2019-04-24T14:04:03.423Z,23.30
2019-04-24T14:06:27.291Z,23.60
2019-04-24T14:09:04.282Z,23.80
2019-04-24T14:16:18.903Z,24.10
2019-04-24T14:21:44.169Z,24.30
2019-04-24T14:24:14.361Z,24.60
2019-04-24T14:26:43.842Z,24.60
2019-04-24T14:31:45.465Z,24.90
2019-04-24T14:34:19.022Z,24.90
2019-04-24T14:41:45.537Z,24.80
2019-04-24T14:47:08.899Z,25.10
2019-04-24T14:49:54.168Z,25.00
2019-04-24T14:52:16.468Z,25.00
2019-04-24T14:57:03.200Z,25.00
2019-04-24T14:59:41.531Z,25.00
2019-04-24T15:02:12.078Z,25.10
2019-04-24T15:04:34.536Z,25.20
2019-04-24T15:07:06.689Z,25.30
2019-04-24T15:09:24.273Z,25.20
2019-04-24T15:17:18.679Z,25.40
2019-04-24T15:29:53.769Z,25.80
2019-04-24T15:34:59.004Z,26.00
2019-04-24T15:37:27.457Z,26.00
2019-04-24T15:40:23.591Z,26.00
2019-04-24T15:42:31.769Z,26.10
2019-04-24T15:50:04.918Z,26.60
2019-04-24T15:52:03.310Z,26.40
2019-04-24T15:54:31.141Z,26.30
2019-04-24T15:57:00.829Z,26.40
2019-04-24T15:59:55.227Z,26.40
2019-04-24T16:04:54.837Z,26.50
2019-04-24T16:07:29.941Z,26.60
2019-04-24T16:10:02.981Z,26.60
2019-04-24T16:12:32.022Z,26.70
2019-04-24T16:15:30.859Z,26.80
2019-04-24T16:18:09.695Z,26.80
2019-04-24T16:20:35.027Z,26.90
2019-04-24T16:23:00.776Z,27.00
2019-04-24T16:28:11.345Z,27.20
2019-04-24T16:30:33.204Z,27.40
2019-04-24T16:40:54.820Z,27.50
2019-04-24T16:43:19.709Z,27.60
2019-04-24T16:53:51.102Z,27.80
2019-04-24T16:56:17.885Z,27.90
2019-04-24T16:58:41.355Z,27.90
2019-04-24T17:04:13.305Z,28.10
2019-04-24T17:14:08.737Z,28.40
2019-04-24T17:17:09.433Z,28.50
2019-04-24T17:24:20.034Z,28.70
2019-04-24T17:26:58.708Z,28.80
2019-04-24T17:29:27.048Z,28.80
2019-04-24T17:31:50.870Z,28.90
2019-04-24T17:34:47.880Z,28.90
2019-04-24T17:36:30.862Z,29.00
2019-04-24T17:39:00.380Z,29.10
2019-04-24T17:41:33.701Z,29.20
2019-04-24T17:44:31.556Z,29.20
2019-04-24T17:47:10.753Z,29.30
2019-04-24T17:49:35.769Z,29.30
2019-04-24T17:52:11.599Z,29.40
2019-04-24T17:54:28.854Z,29.50
2019-04-24T17:59:04.671Z,29.70
2019-04-24T18:01:34.125Z,29.70
2019-04-24T18:04:03.184Z,29.80
2019-04-24T18:06:31.994Z,29.80
2019-04-24T18:09:02.273Z,29.90
2019-04-24T18:11:32.379Z,30.00
2019-04-24T18:14:02.012Z,30.10
2019-04-24T18:16:31.371Z,30.00
2019-04-24T18:19:00.007Z,30.20
2019-04-24T18:21:28.658Z,30.30
2019-04-24T18:23:57.342Z,30.40
2019-04-24T18:26:35.512Z,30.40
2019-04-24T18:29:05.088Z,30.50
2019-04-24T18:31:34.383Z,30.60
2019-04-24T18:34:04.082Z,30.70
2019-04-24T18:36:32.838Z,30.80
2019-04-24T18:39:01.741Z,30.80
2019-04-24T18:41:31.976Z,31.00
2019-04-24T18:44:01.050Z,31.10
2019-04-24T18:46:31.688Z,31.10
2019-04-24T18:49:02.885Z,31.20
2019-04-24T18:51:32.825Z,31.30
2019-04-24T18:54:01.618Z,31.40
2019-04-24T18:56:31.599Z,31.40
2019-04-24T18:59:01.169Z,31.60
2019-04-24T19:01:30.331Z,31.60
2019-04-24T19:03:59.014Z,31.70
2019-04-24T19:06:31.260Z,31.80
2019-04-24T19:08:58.013Z,31.90
2019-04-24T19:11:26.610Z,31.90
2019-04-24T19:13:55.299Z,32.00
2019-04-24T19:16:23.962Z,32.10
2019-04-24T19:18:52.978Z,32.10
2019-04-24T19:21:22.082Z,32.20
2019-04-24T19:23:51.806Z,32.20
2019-04-24T19:26:21.747Z,32.30
2019-04-24T19:28:51.762Z,32.30
2019-04-24T19:31:21.978Z,32.40
2019-04-24T19:33:51.526Z,32.40
2019-04-24T19:36:20.771Z,32.50
2019-04-24T19:38:49.706Z,32.50
2019-04-24T19:41:18.632Z,32.60
2019-04-24T19:43:47.407Z,32.60
2019-04-24T19:46:18.619Z,32.70
2019-04-24T19:48:46.474Z,32.80
2019-04-24T19:51:15.417Z,32.80
2019-04-24T19:53:44.064Z,32.90
2019-04-24T19:56:14.285Z,32.80
2019-04-24T19:58:43.267Z,32.90
2019-04-24T20:01:13.827Z,32.90
2019-04-24T20:03:43.169Z,33.00
2019-04-24T20:06:14.822Z,33.00
2019-04-24T20:08:42.679Z,33.00
2019-04-24T20:11:18.255Z,33.10
2019-04-24T20:13:47.014Z,33.10
2019-04-24T20:16:16.507Z,33.20
2019-04-24T20:18:45.802Z,33.20
2019-04-24T20:21:15.251Z,33.30
2019-04-24T20:23:44.939Z,33.30
2019-04-24T20:26:13.745Z,33.40
2019-04-24T20:28:42.754Z,33.40
2019-04-24T20:31:11.806Z,33.40
2019-04-24T20:33:40.961Z,33.50
2019-04-24T20:36:11.440Z,33.50
2019-04-24T20:38:41.865Z,33.50
2019-04-24T20:41:12.042Z,33.60
2019-04-24T20:43:41.831Z,33.60
2019-04-24T20:46:11.200Z,33.60
2019-04-24T20:48:40.094Z,33.60
2019-04-24T20:51:09.258Z,33.70
2019-04-24T20:53:40.118Z,33.70
2019-04-24T20:56:08.916Z,33.80
2019-04-24T20:58:37.615Z,33.80
2019-04-24T21:01:07.999Z,33.70
2019-04-24T21:03:36.783Z,33.80
2019-04-24T21:06:31.780Z,33.90
2019-04-24T21:09:20.945Z,33.90
2019-04-24T21:11:51.530Z,33.90
2019-04-24T21:14:20.919Z,33.90
2019-04-24T21:16:49.610Z,33.90
2019-04-24T21:19:18.482Z,33.80
2019-04-24T21:21:47.167Z,33.70
2019-04-24T21:24:15.839Z,33.70
2019-04-24T21:26:44.739Z,33.80
2019-04-24T21:29:13.914Z,33.90
2019-04-24T21:31:42.577Z,33.90
2019-04-24T21:34:11.735Z,33.90
2019-04-24T21:36:42.194Z,34.10
2019-04-24T21:39:12.152Z,34.10
2019-04-24T21:41:41.089Z,34.30
2019-04-24T21:44:11.704Z,34.30
2019-04-24T21:46:42.285Z,34.50
2019-04-24T21:49:11.635Z,34.60
2019-04-24T21:51:40.583Z,34.60
2019-04-24T21:54:09.290Z,34.80
2019-04-24T21:56:37.917Z,35.00
2019-04-24T21:59:06.555Z,35.10
2019-04-24T22:02:12.589Z,35.20
2019-04-24T22:04:51.570Z,35.30
2019-04-24T22:07:24.246Z,35.50
2019-04-24T22:09:53.003Z,35.80
2019-04-24T22:12:22.019Z,35.80
2019-04-24T22:14:52.205Z,35.90
2019-04-24T22:17:20.942Z,35.90
2019-04-24T22:19:49.977Z,36.00
2019-04-24T22:22:33.683Z,36.00
2019-04-24T22:25:20.129Z,36.20
2019-04-24T22:27:48.989Z,36.30
2019-04-24T22:30:35.395Z,36.30
2019-04-24T22:33:04.450Z,36.40
2019-04-24T22:35:37.294Z,36.60
2019-04-24T22:38:06.593Z,36.50
2019-04-24T22:41:03.805Z,36.70
2019-04-24T22:43:34.334Z,36.80
2019-04-24T22:46:03.895Z,36.80
2019-04-24T22:48:33.713Z,36.80
2019-04-24T22:51:03.369Z,36.80
2019-04-24T22:53:32.999Z,36.80
2019-04-24T22:56:01.686Z,37.40
2019-04-24T22:58:30.577Z,36.90
2019-04-24T23:01:00.217Z,37.00
2019-04-24T23:03:28.951Z,37.20
2019-04-24T23:05:57.571Z,37.30
2019-04-24T23:08:26.246Z,37.40
2019-04-24T23:10:55.389Z,37.60
2019-04-24T23:13:24.782Z,37.70
2019-04-24T23:15:53.938Z,37.70
2019-04-24T23:18:22.918Z,37.80
2019-04-24T23:21:01.999Z,37.90
2019-04-24T23:23:48.385Z,38.00
2019-04-24T23:26:25.778Z,38.00
2019-04-24T23:29:02.220Z,38.80
2019-04-24T23:31:43.922Z,38.30
2019-04-24T23:34:13.271Z,38.50
2019-04-24T23:36:43.429Z,38.50
2019-04-24T23:39:12.689Z,38.60
2019-04-24T23:41:42.407Z,38.70
2019-04-24T23:44:12.266Z,38.80
2019-04-24T23:46:43.226Z,38.90
2019-04-24T23:49:12.149Z,38.90
2019-04-24T23:51:41.519Z,39.00
2019-04-24T23:54:10.646Z,39.00
2019-04-24T23:56:39.916Z,39.00
2019-04-24T23:59:08.596Z,39.10
